Time;durP1;ratioP1;P1;durP2;ratioP2;P2;SDS_P1;SDS_P2;PMS_P1;PMS_P2;Temp;Humidity;BMP_temperature;BMP_pressure;BME280_temperature;BME280_humidity;BME280_pressure;Samples;Min_cycle;Max_cycle;Signal;HPM_P1;HPM_P2
2022/10/07 00:00:58;;;;;;;;;;;7.70;99.90;;;;;;5065755;28;19932;-71
2022/10/07 00:03:25;;;;;;;;;;;7.70;99.90;;;;;;5066260;28;20030;-71
2022/10/07 00:06:04;;;;;;;;;;;7.60;99.90;;;;;;5069010;28;20069;-71
2022/10/07 00:08:30;;;;;;;;;;;7.60;99.90;;;;;;5069615;28;19932;-71
2022/10/07 00:10:57;;;;;;;;;;;7.60;99.90;;;;;;5069846;28;19932;-71
2022/10/07 00:13:24;;;;;;;;;;;7.60;99.90;;;;;;5069875;28;20043;-71
2022/10/07 00:15:51;;;;;;;;;;;7.60;99.90;;;;;;5069451;28;20249;-71
2022/10/07 00:18:18;;;;;;;;;;;7.50;99.90;;;;;;5069980;28;19942;-71
2022/10/07 00:20:45;;;;;;;;;;;7.40;99.90;;;;;;5067827;28;19940;-71
2022/10/07 00:23:13;;;;;;;;;;;7.40;99.90;;;;;;5070157;28;19928;-71
2022/10/07 00:25:39;;;;;;;;;;;7.50;99.90;;;;;;5069830;28;20031;-71
2022/10/07 00:28:06;;;;;;;;;;;7.50;99.90;;;;;;5077192;28;19982;-70
2022/10/07 00:30:33;;;;;;;;;;;7.50;99.90;;;;;;5101720;28;19918;-70
2022/10/07 00:32:59;;;;;;;;;;;7.50;99.90;;;;;;5081860;28;19936;-72
2022/10/07 00:35:26;;;;;;;;;;;7.50;99.90;;;;;;5053304;28;19932;-71
2022/10/07 00:37:53;;;;;;;;;;;7.50;99.90;;;;;;5069560;28;19932;-70
2022/10/07 00:40:21;;;;;;;;;;;7.60;99.90;;;;;;5069500;28;19933;-71
2022/10/07 00:42:47;;;;;;;;;;;7.60;99.90;;;;;;5051319;28;19932;-71
2022/10/07 00:45:15;;;;;;;;;;;7.60;99.90;;;;;;5068637;28;21284;-70
2022/10/07 00:47:44;;;;;;;;;;;7.60;99.90;;;;;;5068461;28;20447;-71
2022/10/07 00:50:13;;;;;;;;;;;7.60;99.90;;;;;;5069474;28;19954;-71
2022/10/07 00:52:42;;;;;;;;;;;7.60;99.90;;;;;;5067947;28;19932;-71
2022/10/07 00:55:12;;;;;;;;;;;7.60;99.90;;;;;;5050433;28;19939;-71
2022/10/07 00:57:40;;;;;;;;;;;7.60;99.90;;;;;;5068813;28;20019;-71
2022/10/07 01:00:08;;;;;;;;;;;7.60;99.90;;;;;;5067700;28;19932;-71
2022/10/07 01:02:36;;;;;;;;;;;7.60;99.90;;;;;;5068426;28;19932;-70
2022/10/07 01:05:04;;;;;;;;;;;7.60;99.90;;;;;;5068894;28;19976;-71
2022/10/07 01:07:31;;;;;;;;;;;7.50;99.90;;;;;;5049904;28;20413;-71
2022/10/07 01:09:59;;;;;;;;;;;7.50;99.90;;;;;;5067866;28;19940;-70
2022/10/07 01:12:29;;;;;;;;;;;7.50;99.90;;;;;;5050207;28;19955;-71
2022/10/07 01:15:00;;;;;;;;;;;7.50;99.90;;;;;;5049810;28;19933;-71
2022/10/07 01:17:29;;;;;;;;;;;7.50;99.90;;;;;;5068776;28;20006;-71
2022/10/07 01:20:11;;;;;;;;;;;7.50;99.90;;;;;;5067965;28;19933;-71
2022/10/07 01:22:41;;;;;;;;;;;7.50;99.90;;;;;;5064671;28;19936;-70
2022/10/07 01:25:16;;;;;;;;;;;7.40;99.90;;;;;;5076151;28;19933;-71
2022/10/07 01:27:47;;;;;;;;;;;7.40;99.90;;;;;;5050284;28;19939;-71
2022/10/07 01:30:15;;;;;;;;;;;7.40;99.90;;;;;;5050473;28;19939;-71
2022/10/07 01:32:46;;;;;;;;;;;7.40;99.90;;;;;;5057220;28;19939;-71
2022/10/07 01:35:14;;;;;;;;;;;7.40;99.90;;;;;;5049976;28;19932;-71
2022/10/07 01:37:44;;;;;;;;;;;7.30;99.90;;;;;;5058757;28;20019;-70
2022/10/07 01:40:12;;;;;;;;;;;7.30;99.90;;;;;;5068446;28;21314;-70
2022/10/07 01:42:39;;;;;;;;;;;7.30;99.90;;;;;;5068291;28;19939;-71
2022/10/07 01:45:09;;;;;;;;;;;7.30;99.90;;;;;;5067454;28;19933;-71
2022/10/07 01:47:38;;;;;;;;;;;7.40;99.90;;;;;;5049953;28;19932;-71
2022/10/07 01:50:10;;;;;;;;;;;7.40;99.90;;;;;;5063193;28;19944;-71
2022/10/07 01:52:43;;;;;;;;;;;7.40;99.90;;;;;;5065384;28;19955;-71
2022/10/07 01:55:19;;;;;;;;;;;7.40;99.90;;;;;;5049814;28;20003;-71
2022/10/07 01:57:51;;;;;;;;;;;7.40;99.90;;;;;;5058005;28;20348;-70
2022/10/07 02:00:20;;;;;;;;;;;6.30;99.90;;;;;;5068104;28;19929;-71
2022/10/07 02:02:50;;;;;;;;;;;7.40;99.90;;;;;;5049508;28;20360;-71
2022/10/07 02:05:22;;;;;;;;;;;7.40;99.90;;;;;;5049384;28;20444;-71
2022/10/07 02:07:56;;;;;;;;;;;7.30;99.90;;;;;;5049923;28;19979;-72
2022/10/07 02:10:26;;;;;;;;;;;7.30;99.90;;;;;;5067196;28;21313;-71
2022/10/07 02:12:56;;;;;;;;;;;7.30;99.90;;;;;;5047649;28;19939;-71
2022/10/07 02:15:26;;;;;;;;;;;7.30;99.90;;;;;;5067752;28;19954;-71
2022/10/07 02:17:55;;;;;;;;;;;7.30;99.90;;;;;;5056251;28;19939;-71
2022/10/07 02:20:25;;;;;;;;;;;7.30;99.90;;;;;;5045376;28;19939;-71
2022/10/07 02:22:54;;;;;;;;;;;7.40;99.90;;;;;;5067891;28;19939;-71
2022/10/07 02:25:22;;;;;;;;;;;7.40;99.90;;;;;;5058063;28;19939;-70
2022/10/07 02:27:52;;;;;;;;;;;7.50;99.90;;;;;;5069003;28;20081;-71
2022/10/07 02:30:19;;;;;;;;;;;8.90;99.90;;;;;;5068182;28;20203;-71
2022/10/07 02:32:50;;;;;;;;;;;7.60;99.90;;;;;;5077148;28;19963;-71
2022/10/07 02:35:22;;;;;;;;;;;7.70;99.90;;;;;;5057267;28;19990;-71
2022/10/07 02:37:50;;;;;;;;;;;7.80;99.90;;;;;;5049241;28;20343;-70
2022/10/07 02:40:17;;;;;;;;;;;7.90;99.90;;;;;;5049392;28;20125;-71
2022/10/07 02:42:51;;;;;;;;;;;7.90;99.90;;;;;;5049295;28;20451;-71
2022/10/07 02:45:21;;;;;;;;;;;8.00;99.90;;;;;;5048522;28;19939;-71
2022/10/07 02:47:50;;;;;;;;;;;8.00;99.90;;;;;;5049737;28;19932;-71
2022/10/07 02:50:19;;;;;;;;;;;8.10;99.90;;;;;;5067079;28;20014;-72
2022/10/07 02:52:47;;;;;;;;;;;8.10;99.90;;;;;;5049641;28;20372;-71
2022/10/07 02:55:15;;;;;;;;;;;8.10;99.90;;;;;;5049492;28;19939;-70
2022/10/07 02:57:45;;;;;;;;;;;8.10;99.90;;;;;;5067083;28;20020;-71
2022/10/07 03:00:13;;;;;;;;;;;9.60;99.90;;;;;;5066994;28;20611;-71
2022/10/07 03:02:51;;;;;;;;;;;8.10;99.90;;;;;;5067038;28;19977;-71
2022/10/07 03:05:20;;;;;;;;;;;8.10;99.90;;;;;;5048661;28;19939;-71
2022/10/07 03:07:49;;;;;;;;;;;8.10;99.90;;;;;;5049688;28;20375;-71
2022/10/07 03:10:17;;;;;;;;;;;8.00;99.90;;;;;;5048689;28;19939;-71
2022/10/07 03:12:44;;;;;;;;;;;8.00;99.90;;;;;;5048895;28;19939;-71
2022/10/07 03:15:12;;;;;;;;;;;8.00;99.90;;;;;;5048701;28;19960;-70
2022/10/07 03:17:39;;;;;;;;;;;7.90;99.90;;;;;;5051416;28;20058;-71
2022/10/07 03:20:09;;;;;;;;;;;7.90;99.90;;;;;;5052242;28;19932;-71
2022/10/07 03:22:35;;;;;;;;;;;7.80;99.90;;;;;;5070079;28;19933;-71
2022/10/07 03:25:04;;;;;;;;;;;7.80;99.90;;;;;;5052770;28;20033;-71
2022/10/07 03:27:30;;;;;;;;;;;7.70;99.90;;;;;;5052254;28;19932;-70
2022/10/07 03:29:58;;;;;;;;;;;7.70;99.90;;;;;;5069953;28;20030;-72
2022/10/07 03:32:26;;;;;;;;;;;7.60;99.90;;;;;;5068246;28;20034;-71
2022/10/07 03:34:53;;;;;;;;;;;7.60;99.90;;;;;;5058321;28;19932;-71
2022/10/07 03:37:21;;;;;;;;;;;7.60;99.90;;;;;;5047355;28;19958;-71
2022/10/07 03:39:48;;;;;;;;;;;7.50;99.90;;;;;;5048712;28;19938;-71
2022/10/07 03:42:15;;;;;;;;;;;7.50;99.90;;;;;;5065363;28;20196;-70
2022/10/07 03:44:42;;;;;;;;;;;7.50;99.90;;;;;;5047006;28;20392;-71
2022/10/07 03:47:08;;;;;;;;;;;7.50;99.90;;;;;;5065831;28;20006;-71
2022/10/07 03:49:35;;;;;;;;;;;7.40;99.90;;;;;;5057333;28;19932;-71
2022/10/07 03:52:03;;;;;;;;;;;7.50;99.90;;;;;;5047562;28;19948;-71
2022/10/07 03:54:32;;;;;;;;;;;7.50;99.90;;;;;;5044391;28;19982;-70
2022/10/07 03:56:59;;;;;;;;;;;7.50;99.90;;;;;;5055869;28;20935;-70
2022/10/07 03:59:26;;;;;;;;;;;7.50;99.90;;;;;;5047484;28;19937;-72
2022/10/07 04:01:53;;;;;;;;;;;7.50;99.90;;;;;;5046639;28;20018;-72
2022/10/07 04:04:22;;;;;;;;;;;7.40;99.90;;;;;;5048534;28;19938;-71
2022/10/07 04:06:49;;;;;;;;;;;7.40;99.90;;;;;;5050831;28;19938;-70
2022/10/07 04:09:16;;;;;;;;;;;7.40;99.90;;;;;;5051632;28;20352;-71
2022/10/07 04:11:44;;;;;;;;;;;7.40;99.90;;;;;;5068063;28;19937;-71
2022/10/07 04:14:12;;;;;;;;;;;7.40;99.90;;;;;;5061041;28;19932;-71
2022/10/07 04:16:40;;;;;;;;;;;7.40;99.90;;;;;;5051219;28;19938;-71
2022/10/07 04:19:09;;;;;;;;;;;7.40;99.90;;;;;;5050514;28;19932;-71
2022/10/07 04:21:36;;;;;;;;;;;7.40;99.90;;;;;;5052418;28;19963;-73
2022/10/07 04:24:04;;;;;;;;;;;7.40;99.90;;;;;;5068044;28;20555;-71
2022/10/07 04:26:31;;;;;;;;;;;5.40;99.90;;;;;;5069777;28;20007;-71
2022/10/07 04:28:59;;;;;;;;;;;7.40;99.90;;;;;;5067708;28;20634;-70
2022/10/07 04:31:26;;;;;;;;;;;7.30;99.90;;;;;;5051982;28;19932;-71
2022/10/07 04:34:00;;;;;;;;;;;7.30;99.90;;;;;;5060049;28;19944;-70
2022/10/07 04:36:32;;;;;;;;;;;7.30;99.90;;;;;;5069662;28;20019;-71
2022/10/07 04:39:09;;;;;;;;;;;7.30;99.90;;;;;;5050829;28;19939;-72
2022/10/07 04:41:40;;;;;;;;;;;7.30;99.90;;;;;;5051212;28;20355;-72
2022/10/07 04:44:14;;;;;;;;;;;7.30;99.90;;;;;;5056585;28;19987;-71
2022/10/07 04:46:50;;;;;;;;;;;7.30;99.90;;;;;;5050981;28;19940;-71
2022/10/07 04:49:18;;;;;;;;;;;7.30;99.90;;;;;;5051468;28;20026;-73
2022/10/07 04:51:44;;;;;;;;;;;7.30;99.90;;;;;;5050755;28;19933;-71
2022/10/07 04:54:12;;;;;;;;;;;7.30;99.90;;;;;;5050727;28;19940;-73
2022/10/07 04:56:48;;;;;;;;;;;7.30;99.90;;;;;;5050593;28;20019;-73
2022/10/07 04:59:16;;;;;;;;;;;7.30;99.90;;;;;;5050313;28;19998;-72
2022/10/07 05:01:43;;;;;;;;;;;7.30;99.90;;;;;;5050593;28;20585;-74
2022/10/07 05:04:10;;;;;;;;;;;7.20;99.90;;;;;;5067948;28;20469;-73
2022/10/07 05:06:37;;;;;;;;;;;7.20;99.90;;;;;;5067275;28;19939;-73
2022/10/07 05:09:04;;;;;;;;;;;7.20;99.90;;;;;;5050516;28;19932;-73
2022/10/07 05:11:35;;;;;;;;;;;7.20;99.90;;;;;;5050304;28;19932;-73
2022/10/07 05:14:07;;;;;;;;;;;7.10;99.90;;;;;;5085839;28;19939;-74
2022/10/07 05:16:37;;;;;;;;;;;7.20;99.90;;;;;;5067483;28;19932;-72
2022/10/07 05:19:05;;;;;;;;;;;7.10;99.90;;;;;;5056837;28;19977;-73
2022/10/07 05:21:32;;;;;;;;;;;7.10;99.90;;;;;;5051321;28;19952;-73
2022/10/07 05:23:59;;;;;;;;;;;7.10;99.90;;;;;;5049174;28;19932;-74
2022/10/07 05:26:32;;;;;;;;;;;7.10;99.90;;;;;;5060136;28;19932;-73
2022/10/07 05:29:01;;;;;;;;;;;7.10;99.90;;;;;;5050583;28;19987;-73
2022/10/07 05:31:35;;;;;;;;;;;7.10;99.90;;;;;;5059215;28;19924;-73
2022/10/07 05:34:04;;;;;;;;;;;7.10;99.90;;;;;;5055440;28;19940;-72
2022/10/07 05:36:31;;;;;;;;;;;7.10;99.90;;;;;;5044801;28;20027;-73
2022/10/07 05:39:00;;;;;;;;;;;7.10;99.90;;;;;;5052782;28;19933;-72
2022/10/07 05:41:38;;;;;;;;;;;7.10;99.90;;;;;;5046017;28;20387;-73
2022/10/07 05:44:04;;;;;;;;;;;7.10;99.90;;;;;;5042747;28;20602;-73
2022/10/07 05:46:31;;;;;;;;;;;7.10;99.90;;;;;;5044883;28;19932;-72
2022/10/07 05:48:59;;;;;;;;;;;7.20;99.90;;;;;;5046026;28;20019;-71
2022/10/07 05:51:32;;;;;;;;;;;7.20;99.90;;;;;;5037622;28;19929;-72
2022/10/07 05:54:00;;;;;;;;;;;7.20;99.90;;;;;;5045370;28;20510;-72
2022/10/07 05:56:35;;;;;;;;;;;7.30;99.90;;;;;;5064241;28;19924;-72
2022/10/07 05:59:03;;;;;;;;;;;7.30;99.90;;;;;;5054349;28;19982;-72
2022/10/07 06:01:30;;;;;;;;;;;7.40;99.90;;;;;;5067788;28;19932;-71
2022/10/07 06:04:00;;;;;;;;;;;7.40;99.90;;;;;;5039333;28;19925;-72
2022/10/07 06:06:32;;;;;;;;;;;7.50;99.90;;;;;;5047512;28;19929;-73
2022/10/07 06:14:29;;;;;;;;;;;7.70;99.90;;;;;;5044665;28;19931;-71
2022/10/07 06:16:56;;;;;;;;;;;7.70;99.90;;;;;;5057670;28;19935;-71
2022/10/07 06:19:22;;;;;;;;;;;7.80;99.90;;;;;;5043622;28;19924;-71
2022/10/07 06:21:53;;;;;;;;;;;7.90;99.90;;;;;;5048406;28;19928;-71
2022/10/07 06:24:20;;;;;;;;;;;8.10;99.90;;;;;;5065632;28;19928;-71
2022/10/07 06:26:48;;;;;;;;;;;9.50;99.90;;;;;;5045291;28;20361;-71
2022/10/07 06:29:16;;;;;;;;;;;8.30;99.90;;;;;;5065312;28;20470;-71
2022/10/07 06:31:44;;;;;;;;;;;8.50;99.90;;;;;;5042720;28;19928;-72
2022/10/07 06:34:11;;;;;;;;;;;8.60;99.90;;;;;;5045047;28;20050;-73
2022/10/07 06:36:38;;;;;;;;;;;8.90;99.90;;;;;;5057578;28;20024;-73
2022/10/07 06:39:06;;;;;;;;;;;9.30;99.90;;;;;;5050328;28;19935;-72
2022/10/07 06:41:37;;;;;;;;;;;9.80;99.90;;;;;;5038240;28;20015;-72
2022/10/07 06:44:22;;;;;;;;;;;10.40;99.90;;;;;;5059899;28;19932;-72
2022/10/07 06:46:51;;;;;;;;;;;11.00;99.90;;;;;;5058221;28;20287;-73
2022/10/07 06:49:18;;;;;;;;;;;11.50;99.90;;;;;;5040068;28;19932;-73
2022/10/07 06:51:45;;;;;;;;;;;12.10;99.90;;;;;;5062147;28;20328;-72
2022/10/07 06:54:13;;;;;;;;;;;12.50;99.90;;;;;;5046223;28;19926;-72
2022/10/07 06:56:40;;;;;;;;;;;13.00;99.90;;;;;;5032321;28;19955;-73
2022/10/07 06:59:07;;;;;;;;;;;13.40;99.90;;;;;;5035781;28;20015;-72
2022/10/07 07:01:47;;;;;;;;;;;13.80;99.90;;;;;;5047032;28;19932;-72
2022/10/07 07:04:14;;;;;;;;;;;14.10;99.90;;;;;;4977857;28;1753866;-72
2022/10/07 07:06:41;;;;;;;;;;;14.40;99.90;;;;;;5053919;28;19932;-73
2022/10/07 07:09:09;;;;;;;;;;;14.80;99.90;;;;;;5039804;28;20024;-72
2022/10/07 07:11:42;;;;;;;;;;;15.10;99.90;;;;;;5057563;28;19943;-73
2022/10/07 07:14:21;;;;;;;;;;;15.40;99.90;;;;;;5060330;28;19936;-72
2022/10/07 07:16:54;;;;;;;;;;;15.60;99.90;;;;;;5062254;28;19928;-73
2022/10/07 07:19:24;;;;;;;;;;;15.80;99.90;;;;;;5048595;28;19933;-72
2022/10/07 07:21:51;;;;;;;;;;;16.10;99.90;;;;;;5072145;28;20010;-71
2022/10/07 07:24:19;;;;;;;;;;;16.50;99.90;;;;;;5584024;22;19919;-72
2022/10/07 07:26:48;;;;;;;;;;;17.50;99.90;;;;;;5047876;28;20019;-73
2022/10/07 07:29:15;;;;;;;;;;;16.70;99.90;;;;;;5053930;28;20324;-72
2022/10/07 07:31:49;;;;;;;;;;;16.90;99.90;;;;;;5058441;28;19928;-72
2022/10/07 07:34:18;;;;;;;;;;;17.30;99.90;;;;;;5053592;28;19925;-73
2022/10/07 07:36:47;;;;;;;;;;;17.30;99.90;;;;;;5053159;28;20031;-73
2022/10/07 07:39:16;;;;;;;;;;;17.40;99.90;;;;;;5053209;28;20397;-73
2022/10/07 07:41:46;;;;;;;;;;;17.40;99.90;;;;;;5055117;28;19979;-73
2022/10/07 07:44:16;;;;;;;;;;;17.60;99.90;;;;;;5026396;28;20538;-73
2022/10/07 07:46:46;;;;;;;;;;;17.70;99.90;;;;;;5024308;28;20006;-73
2022/10/07 07:49:13;;;;;;;;;;;17.80;99.90;;;;;;5032556;28;19924;-72
2022/10/07 07:51:42;;;;;;;;;;;17.70;99.90;;;;;;5020700;28;20400;-72
2022/10/07 07:54:12;;;;;;;;;;;17.80;99.90;;;;;;5032588;28;19935;-72
2022/10/07 07:56:42;;;;;;;;;;;17.80;99.90;;;;;;5031819;28;19959;-72
2022/10/07 07:59:10;;;;;;;;;;;17.90;99.90;;;;;;5031992;28;20462;-72
2022/10/07 08:01:38;;;;;;;;;;;17.80;99.90;;;;;;5032283;28;20002;-72
2022/10/07 08:04:06;;;;;;;;;;;17.70;99.90;;;;;;5035568;28;19954;-72
2022/10/07 08:06:34;;;;;;;;;;;17.70;99.90;;;;;;5043613;28;19939;-72
2022/10/07 08:09:03;;;;;;;;;;;17.80;99.90;;;;;;5032141;28;19925;-72
2022/10/07 08:11:32;;;;;;;;;;;17.90;99.90;;;;;;5031596;28;19928;-72
2022/10/07 08:14:02;;;;;;;;;;;17.80;99.90;;;;;;5022787;28;19928;-72
2022/10/07 08:16:29;;;;;;;;;;;17.80;99.90;;;;;;5030369;28;19929;-71
2022/10/07 08:18:59;;;;;;;;;;;17.80;99.90;;;;;;5050995;28;19929;-72
2022/10/07 08:21:27;;;;;;;;;;;17.90;99.90;;;;;;5054718;28;20432;-72
2022/10/07 08:23:57;;;;;;;;;;;17.90;99.90;;;;;;5030821;28;20043;-72
2022/10/07 08:26:28;;;;;;;;;;;17.90;99.90;;;;;;5029815;28;20480;-72
2022/10/07 08:28:57;;;;;;;;;;;17.80;99.90;;;;;;5011974;28;20004;-72
2022/10/07 08:31:26;;;;;;;;;;;17.70;99.90;;;;;;5014157;28;19983;-72
2022/10/07 08:33:53;;;;;;;;;;;17.60;99.90;;;;;;5048684;28;19929;-72
2022/10/07 08:36:21;;;;;;;;;;;17.50;99.90;;;;;;5046620;28;19929;-72
2022/10/07 08:38:49;;;;;;;;;;;17.50;99.90;;;;;;5056064;28;19954;-72
2022/10/07 08:41:34;;;;;;;;;;;17.60;99.90;;;;;;5043383;28;19933;-72
2022/10/07 08:44:07;;;;;;;;;;;17.60;99.90;;;;;;5034438;28;20019;-72
2022/10/07 08:46:36;;;;;;;;;;;17.60;99.90;;;;;;5051169;28;19936;-74
2022/10/07 08:49:05;;;;;;;;;;;17.70;99.90;;;;;;5060885;28;20031;-72
2022/10/07 08:51:37;;;;;;;;;;;17.70;99.90;;;;;;5049559;28;20722;-72
2022/10/07 08:54:04;;;;;;;;;;;17.70;99.90;;;;;;5047150;28;20480;-72
2022/10/07 08:56:32;;;;;;;;;;;17.80;99.90;;;;;;5042466;28;19995;-72
2022/10/07 08:59:06;;;;;;;;;;;17.70;99.90;;;;;;5038783;28;19990;-72
2022/10/07 09:01:38;;;;;;;;;;;17.70;99.90;;;;;;5040405;28;19928;-72
2022/10/07 09:04:09;;;;;;;;;;;17.60;99.90;;;;;;5042188;28;19979;-72
2022/10/07 09:06:39;;;;;;;;;;;17.40;99.90;;;;;;5043465;28;19929;-74
2022/10/07 09:09:11;;;;;;;;;;;17.10;99.90;;;;;;5043550;28;20321;-72
2022/10/07 09:11:39;;;;;;;;;;;16.90;99.90;;;;;;5059853;28;19968;-71
2022/10/07 09:14:10;;;;;;;;;;;16.60;99.90;;;;;;5055468;28;19929;-72
2022/10/07 09:16:42;;;;;;;;;;;16.40;99.90;;;;;;5045150;28;19929;-72
2022/10/07 09:19:16;;;;;;;;;;;16.30;99.90;;;;;;5045984;28;19947;-72
2022/10/07 09:21:45;;;;;;;;;;;17.10;99.90;;;;;;5045413;28;19932;-72
2022/10/07 09:24:16;;;;;;;;;;;16.10;99.90;;;;;;5050179;28;19929;-72
2022/10/07 09:26:42;;;;;;;;;;;16.10;99.90;;;;;;5057292;28;20385;-71
2022/10/07 09:29:10;;;;;;;;;;;16.10;99.90;;;;;;5055639;28;20401;-71
2022/10/07 09:31:37;;;;;;;;;;;16.20;99.90;;;;;;5054242;28;20050;-72
2022/10/07 09:34:04;;;;;;;;;;;;;;;;;;5548235;22;19927;-73
2022/10/07 09:36:31;;;;;;;;;;;16.30;99.90;;;;;;5104559;28;20432;-71
2022/10/07 09:39:15;;;;;;;;;;;16.40;99.90;;;;;;5100056;28;19924;-72
2022/10/07 09:41:42;;;;;;;;;;;16.50;99.90;;;;;;5098592;28;19932;-72
2022/10/07 09:44:21;;;;;;;;;;;16.60;99.90;;;;;;5086725;28;19939;-71
2022/10/07 09:46:48;;;;;;;;;;;16.60;99.90;;;;;;5078765;28;19932;-72
2022/10/07 09:49:42;;;;;;;;;;;16.80;99.90;;;;;;5079202;28;19943;-71
2022/10/07 09:52:15;;;;;;;;;;;17.20;99.90;;;;;;5042485;28;19932;-71
2022/10/07 09:54:44;;;;;;;;;;;17.00;99.90;;;;;;5077749;28;20183;-71
2022/10/07 09:57:22;;;;;;;;;;;18.70;99.90;;;;;;5077474;28;19932;-72
2022/10/07 09:59:49;;;;;;;;;;;17.30;99.90;;;;;;5078705;28;19940;-72
2022/10/07 10:02:19;;;;;;;;;;;17.40;99.90;;;;;;5103819;28;20035;-71
2022/10/07 10:04:47;;;;;;;;;;;17.40;99.90;;;;;;5102965;28;19993;-72
2022/10/07 10:07:18;;;;;;;;;;;17.60;99.90;;;;;;5090337;28;19932;-72
2022/10/07 10:09:49;;;;;;;;;;;17.70;99.90;;;;;;5086746;28;20611;-72
2022/10/07 10:12:17;;;;;;;;;;;17.80;99.90;;;;;;5086702;28;19936;-72
2022/10/07 10:14:47;;;;;;;;;;;17.90;99.90;;;;;;5602816;22;20363;-71
2022/10/07 10:17:21;;;;;;;;;;;18.90;99.90;;;;;;5078153;28;20013;-72
2022/10/07 10:19:48;;;;;;;;;;;18.00;99.90;;;;;;5076836;28;19931;-72
2022/10/07 10:22:23;;;;;;;;;;;18.10;99.90;;;;;;5077029;28;19936;-72
2022/10/07 10:27:40;;;;;;;;;;;18.20;99.90;;;;;;5066917;28;19943;-73
2022/10/07 10:30:08;;;;;;;;;;;18.40;99.90;;;;;;5064668;28;19994;-73
2022/10/07 10:32:58;;;;;;;;;;;18.50;99.90;;;;;;5062227;28;19948;-73
2022/10/07 10:35:26;;;;;;;;;;;18.70;99.90;;;;;;5591925;22;19935;-73
2022/10/07 10:37:58;;;;;;;;;;;18.70;99.90;;;;;;5077439;28;20291;-72
2022/10/07 10:40:29;;;;;;;;;;;18.80;99.90;;;;;;5082457;28;19962;-72
2022/10/07 10:42:58;;;;;;;;;;;18.90;99.90;;;;;;5087797;28;19957;-73
2022/10/07 10:45:32;;;;;;;;;;;19.00;99.90;;;;;;5087116;28;20417;-73
2022/10/07 10:48:06;;;;;;;;;;;19.10;99.90;;;;;;5084400;28;20400;-73
2022/10/07 10:50:37;;;;;;;;;;;19.20;99.90;;;;;;5059515;28;19928;-73
2022/10/07 10:53:12;;;;;;;;;;;19.50;99.90;;;;;;5050178;28;20385;-73
2022/10/07 10:55:49;;;;;;;;;;;19.40;99.90;;;;;;5073851;28;19983;-73
2022/10/07 10:58:26;;;;;;;;;;;19.50;99.90;;;;;;5055075;28;19925;-72
2022/10/07 11:00:57;;;;;;;;;;;19.60;99.90;;;;;;5051331;28;20474;-72
2022/10/07 11:03:34;;;;;;;;;;;19.90;99.90;;;;;;5074603;28;19932;-73
2022/10/07 11:06:03;;;;;;;;;;;19.90;99.90;;;;;;5078760;28;19932;-73
2022/10/07 11:08:32;;;;;;;;;;;20.00;99.90;;;;;;5087998;28;19977;-73
2022/10/07 11:11:02;;;;;;;;;;;20.10;99.90;;;;;;5087807;28;20305;-73
2022/10/07 11:13:34;;;;;;;;;;;20.20;99.90;;;;;;5087366;28;19993;-74
2022/10/07 11:16:04;;;;;;;;;;;20.40;99.90;;;;;;5069389;28;19924;-73
2022/10/07 11:18:34;;;;;;;;;;;20.50;99.90;;;;;;5048191;28;19939;-73
2022/10/07 11:21:01;;;;;;;;;;;20.60;99.90;;;;;;5065901;28;19974;-73
2022/10/07 11:23:31;;;;;;;;;;;20.60;99.90;;;;;;5067555;28;20297;-73
2022/10/07 11:26:02;;;;;;;;;;;20.50;99.90;;;;;;5067059;28;19924;-73
2022/10/07 11:28:30;;;;;;;;;;;20.40;99.90;;;;;;5067560;28;19982;-73
2022/10/07 11:30:59;;;;;;;;;;;20.40;99.90;;;;;;5066906;28;20405;-73
2022/10/07 11:33:31;;;;;;;;;;;20.20;99.90;;;;;;5066998;28;19930;-73
2022/10/07 11:36:02;;;;;;;;;;;20.00;99.90;;;;;;5077100;28;19970;-73
2022/10/07 11:38:31;;;;;;;;;;;20.10;99.90;;;;;;5068836;28;20411;-73
2022/10/07 11:40:59;;;;;;;;;;;20.20;99.90;;;;;;5070973;28;19933;-73
2022/10/07 11:43:29;;;;;;;;;;;20.40;99.90;;;;;;5069012;28;19935;-73
2022/10/07 11:45:57;;;;;;;;;;;20.70;99.90;;;;;;5070627;28;19981;-73
2022/10/07 11:48:26;;;;;;;;;;;20.90;99.90;;;;;;5070638;28;20439;-73
2022/10/07 11:50:54;;;;;;;;;;;21.00;99.90;;;;;;5070973;28;19960;-73
2022/10/07 11:53:23;;;;;;;;;;;21.20;99.90;;;;;;5065982;28;20026;-73
2022/10/07 11:55:55;;;;;;;;;;;21.20;99.90;;;;;;5070710;28;19929;-73
2022/10/07 11:58:23;;;;;;;;;;;21.40;99.90;;;;;;5070437;28;19932;-73
2022/10/07 12:01:11;;;;;;;;;;;21.60;99.90;;;;;;5069959;28;20093;-73
2022/10/07 12:03:45;;;;;;;;;;;21.60;99.90;;;;;;5068457;28;19940;-73
2022/10/07 12:06:12;;;;;;;;;;;21.50;99.90;;;;;;5054478;28;19925;-73
2022/10/07 12:08:40;;;;;;;;;;;21.30;99.90;;;;;;5071328;28;20014;-73
2022/10/07 12:11:26;;;;;;;;;;;21.40;99.90;;;;;;5070393;28;19924;-73
2022/10/07 12:13:53;;;;;;;;;;;21.50;99.90;;;;;;5070923;28;19933;-73
2022/10/07 12:16:40;;;;;;;;;;;21.60;99.90;;;;;;5070481;28;19929;-73
2022/10/07 12:19:17;;;;;;;;;;;21.60;99.90;;;;;;5070815;28;19924;-73
2022/10/07 12:22:03;;;;;;;;;;;21.60;99.90;;;;;;5070742;28;19928;-73
2022/10/07 12:24:30;;;;;;;;;;;21.70;99.90;;;;;;5069661;28;19928;-73
2022/10/07 12:26:58;;;;;;;;;;;21.70;99.90;;;;;;5070308;28;19939;-73
2022/10/07 12:29:29;;;;;;;;;;;21.70;99.90;;;;;;5051643;28;19936;-73
2022/10/07 12:31:56;;;;;;;;;;;21.60;99.90;;;;;;5070110;28;19932;-72
2022/10/07 12:34:33;;;;;;;;;;;21.50;99.90;;;;;;5060399;28;20744;-73
2022/10/07 12:37:18;;;;;;;;;;;21.40;99.90;;;;;;5082397;28;19928;-73
2022/10/07 12:39:45;;;;;;;;;;;21.30;99.90;;;;;;5088996;28;19969;-72
2022/10/07 12:42:13;;;;;;;;;;;21.30;99.90;;;;;;5064842;28;19929;-72
2022/10/07 12:44:44;;;;;;;;;;;21.20;99.90;;;;;;5594325;22;19930;-72
2022/10/07 12:47:15;;;;;;;;;;;21.30;99.90;;;;;;5082322;28;20015;-73
2022/10/07 12:49:47;;;;;;;;;;;21.30;99.90;;;;;;5081625;28;20292;-73
2022/10/07 12:52:16;;;;;;;;;;;21.40;99.90;;;;;;5081618;28;19924;-73
2022/10/07 12:54:47;;;;;;;;;;;21.50;99.90;;;;;;5075632;28;20398;-73
2022/10/07 12:57:18;;;;;;;;;;;21.60;99.90;;;;;;5079836;28;19955;-73
2022/10/07 12:59:50;;;;;;;;;;;21.60;99.90;;;;;;5080808;28;19928;-73
2022/10/07 13:02:42;;;;;;;;;;;21.70;99.90;;;;;;5084763;28;19928;-72
2022/10/07 13:05:29;;;;;;;;;;;21.90;99.90;;;;;;5084849;28;20405;-73
2022/10/07 13:08:14;;;;;;;;;;;21.90;99.90;;;;;;5083750;28;19932;-72
2022/10/07 13:10:55;;;;;;;;;;;22.00;99.90;;;;;;5087585;28;19928;-72
2022/10/07 13:16:06;;;;;;;;;;;21.90;99.90;;;;;;5370689;22;19963;-72
2022/10/07 13:18:40;;;;;;;;;;;21.90;99.90;;;;;;5075553;28;19935;-73
2022/10/07 13:21:12;;;;;;;;;;;21.90;99.90;;;;;;5082548;28;19928;-74
2022/10/07 13:23:39;;;;;;;;;;;21.90;99.90;;;;;;5082674;28;19932;-73
2022/10/07 13:26:06;;;;;;;;;;;21.90;99.90;;;;;;5082362;28;20000;-74
2022/10/07 13:28:36;;;;;;;;;;;21.90;99.90;;;;;;5103240;22;19932;-75
2022/10/07 13:31:15;;;;;;;;;;;21.90;99.90;;;;;;5038595;28;20435;-72
2022/10/07 13:33:43;;;;;;;;;;;21.90;99.90;;;;;;5046432;28;19940;-75
2022/10/07 13:36:15;;;;;;;;;;;21.70;99.90;;;;;;5031564;28;20030;-74
2022/10/07 13:38:43;;;;;;;;;;;21.60;99.90;;;;;;5048298;28;19956;-75
2022/10/07 13:41:14;;;;;;;;;;;21.50;99.90;;;;;;5029447;28;20031;-75
2022/10/07 13:43:42;;;;;;;;;;;21.50;99.90;;;;;;5049448;28;19933;-74
2022/10/07 13:46:09;;;;;;;;;;;21.40;99.90;;;;;;5056899;28;19928;-75
2022/10/07 13:48:38;;;;;;;;;;;21.20;99.90;;;;;;5029932;28;19929;-75
2022/10/07 13:51:05;;;;;;;;;;;21.20;99.90;;;;;;5021884;28;19925;-75
2022/10/07 13:53:34;;;;;;;;;;;21.20;99.90;;;;;;5041461;28;19933;-75
2022/10/07 13:56:13;;;;;;;;;;;21.20;99.90;;;;;;5043157;28;20700;-78
2022/10/07 13:58:40;;;;;;;;;;;21.10;99.90;;;;;;5022761;28;20036;-77
2022/10/07 14:01:07;;;;;;;;;;;21.00;99.90;;;;;;5049475;28;20393;-78
2022/10/07 14:03:34;;;;;;;;;;;21.10;99.90;;;;;;5046754;28;19983;-77
2022/10/07 14:06:02;;;;;;;;;;;21.10;99.90;;;;;;5041878;28;19983;-76
2022/10/07 14:08:30;;;;;;;;;;;21.00;99.90;;;;;;5025119;28;19939;-77
2022/10/07 14:11:02;;;;;;;;;;;21.00;99.90;;;;;;5039146;28;19983;-77
2022/10/07 14:13:29;;;;;;;;;;;20.90;99.90;;;;;;5042416;28;20456;-77
2022/10/07 14:15:58;;;;;;;;;;;20.80;99.90;;;;;;5024834;28;19933;-77
2022/10/07 14:18:26;;;;;;;;;;;20.80;99.90;;;;;;5025472;28;20002;-74
2022/10/07 14:20:57;;;;;;;;;;;20.80;99.90;;;;;;5042183;28;19972;-74
2022/10/07 14:23:27;;;;;;;;;;;20.80;99.90;;;;;;5024081;28;19943;-76
2022/10/07 14:25:55;;;;;;;;;;;20.80;99.90;;;;;;5052183;28;20015;-76
2022/10/07 14:28:29;;;;;;;;;;;20.70;99.90;;;;;;5039164;28;19931;-76
2022/10/07 14:37:01;;;;;;;;;;;20.40;99.90;;;;;;5011749;28;20305;-78
2022/10/07 14:39:31;;;;;;;;;;;20.30;99.90;;;;;;5025326;28;19932;-77
2022/10/07 14:41:58;;;;;;;;;;;20.20;99.90;;;;;;5042312;28;19951;-75
2022/10/07 14:44:26;;;;;;;;;;;20.10;99.90;;;;;;5047664;28;20321;-78
2022/10/07 14:47:01;;;;;;;;;;;20.10;99.90;;;;;;5041365;28;20433;-78
2022/10/07 14:49:28;;;;;;;;;;;20.10;99.90;;;;;;5029879;28;19929;-76
2022/10/07 14:51:55;;;;;;;;;;;20.00;99.90;;;;;;5046667;28;19929;-77
2022/10/07 14:54:22;;;;;;;;;;;20.00;99.90;;;;;;5035829;28;19932;-76
2022/10/07 14:56:49;;;;;;;;;;;19.90;99.90;;;;;;5042267;28;19928;-77